LEMDLJPZ

Guest
Details From LEMD - Madrid - Barajas
To LJPZ - Portoroz
Flight Number -
Tags Generated
Created
Modified
Stats Distance 809 nm / 1,497 km
Max Altitude 0 ft / 0 m
Waypoints 5
Social Downloads 0
Likes 0
Share VATSIM

Download

Looking for another format? Having issues loading an existing format? Contact us
Advertisement - Login to hide

Notes

Generated

Route

LEMD SAL MOTUR BABAG LJPZ

ID Type Via Altitude Latitude Longitude Leg Dist Tot Dist Heading (true) Name
O LEMD APT - 0 ft / 0 m 40.53262˚ -3.55938˚ - 0 nm - -
SAL NDB - 0 ft / 0 m 42.44583˚ 2.01500˚ 275 nm 275 nm 64° / 67° Sainte Leocadie NDB
MOTUR FIX - 0 ft / 0 m 44.01722˚ 7.19722˚ 245 nm 521 nm 66° / 69° -
BABAG FIX - 0 ft / 0 m 45.38694˚ 13.12694˚ 266 nm 787 nm 70° / 74° -
O LJPZ APT - 0 ft / 0 m 45.47718˚ 13.61198˚ 21 nm 808 nm 75° / 75° -

Altitude Profile

Advertisement - Login to hide

Weather


0- 5 10 15 20 25 30 35+ Temperature / ° C

Clouds and Precipitation
Forecast for 2017-12-17 06:00 UTC. Updated an hour ago

Ground ~20,000 ft ~40,000 ft Winds

LEMD

Details ICAO LEMD (MAD)
Name Barajas
Region Spain
Timezone Europe/Madrid (UTC+1.0)
Stats Elevation 1,998 ft / 609 m (AMSL)
Location 40.490447° -3.560614°
Runways 5
Magnetic Variation 0.685° W

METAR

LEMD 170230Z 18002KT CAVOK 01/M03 Q1028 NOSIG

Decode

TAF

TAF LEMD 162300Z 1700/1806 01008KT CAVOK TX10/1715Z TNM02/1707Z TEMPO 1711/1718 01010G22KT

Decode

Departure Runways

ID Width Length Bearing (true) Bearing (mag) Surface Threshold Offset Overrun Length
14L 197 ft / 60 m 11,494 ft / 3,504 m 142.32° 143.01° Asphalt 0 ft / 0 m 820 ft / 250 m
14R 197 ft / 60 m 13,454 ft / 4,101 m 142.30° 142.99° Asphalt 0 ft / 0 m 427 ft / 130 m
18C 174 ft / 53 m 10,952 ft / 3,338 m 179.60° 180.29° Concrete 0 ft / 0 m 0 ft / 0 m
18L 197 ft / 60 m 11,494 ft / 3,503 m 179.76° 180.45° Asphalt 1,640 ft / 500 m 984 ft / 300 m
18R 197 ft / 60 m 14,282 ft / 4,353 m 179.76° 180.45° Asphalt 3,232 ft / 985 m 853 ft / 260 m
32L 197 ft / 60 m 13,454 ft / 4,101 m 322.32° 323.01° Asphalt 3,445 ft / 1,050 m 328 ft / 100 m
32R 197 ft / 60 m 11,494 ft / 3,504 m 322.33° 323.02° Asphalt 1,640 ft / 500 m 984 ft / 300 m
36C 174 ft / 53 m 10,952 ft / 3,338 m 359.60° 0.29° Concrete 0 ft / 0 m 0 ft / 0 m
36L 197 ft / 60 m 14,282 ft / 4,353 m 359.76° 0.45° Asphalt 0 ft / 0 m 0 ft / 0 m
36R 197 ft / 60 m 11,494 ft / 3,503 m 359.76° 0.45° Asphalt 0 ft / 0 m 295 ft / 90 m

LJPZ

Details ICAO LJPZ (POW)
Name PORTOROZ
Region Slovenia
Timezone Europe/Ljubljana (UTC+1.0)
Stats Elevation 7 ft / 2 m (AMSL)
Location 45.472445° 13.615681°
Runways 1
Magnetic Variation 3.444° E

METAR

LJPZ 170230Z AUTO 07007KT 9999 NCD 04/M02 Q1014

Decode

TAF

Not found

Destination Runways

ID Width Length Bearing (true) Bearing (mag) Surface Threshold Offset Overrun Length
15 98 ft / 30 m 3,939 ft / 1,201 m 151.28° 147.84° Asphalt 0 ft / 0 m 0 ft / 0 m
33 98 ft / 30 m 3,939 ft / 1,201 m 331.29° 327.85° Asphalt 751 ft / 229 m 0 ft / 0 m